• Join FlightAware (Why Join?)
  • Login
  • US Flag 
Gobble Gobble! 
12:47AM EST


 

Airport Tracker/Info


-or-


 

Live Flight TrackerFlight Track Log ✈ TCF6008 ✈ 13-May-2013 ✈ KLGA - KGSO

Flight Track Log - Related Links

Times and Time Zones

All times are in EDT time to prevent confusion due to time zone crossing. See the TCF6008 flight status page for this flight to view local times or setup timezone preferences in your user account.

Time Position Orientation Groundspeed Altitude Reporting Facility
EDT Latitude Longitude Course Direction KTS MPH feet Rate Location/Type
02:39PM 40.8000 -73.9000 270° West 160 184 2,600  Level New York TRACON
02:40PM 40.8500 -73.9333 333° Northwest 207 238 5,700 3,420 Climbing New York TRACON
02:41PM 40.6559 -74.2271 242° Southwest  Level FlightAware Approximate
02:41PM 40.8333 -74.0167 255° West 219 252 9,500  Level New York TRACON
02:42PM 40.6091 -74.3439 242° Southwest  Level FlightAware Approximate
02:42PM 40.8000 -74.1000 242° Southwest 263 303 12,700  Level New York TRACON
02:43PM 40.5676 -74.4639 246° West  Level FlightAware Approximate
02:43PM 40.7667 -74.1833 242° Southwest 297 342 14,900  Level New York TRACON
02:44PM 40.5333 -74.5863 270° West  Level FlightAware Approximate
02:45PM 40.6797 -74.3722 239° Southwest 306 352 17,000  Level New York Center
02:46PM 40.6397 -74.4522 237° Southwest 300 345 18,600 2,400 Climbing New York Center
02:47PM 40.5911 -74.5397 234° Southwest 307 353 21,800 3,000 Climbing New York Center
02:48PM 40.5403 -74.6269 233° Southwest 302 348 24,600 2,580 Climbing New York Center
02:49PM 40.4917 -74.7117 233° Southwest 302 348 27,100 1,680 Climbing New York Center
02:50PM 40.4408 -74.7933 231° Southwest 302 348 28,000 420 Climbing New York Center
02:51PM 40.3944 -74.8750 233° Southwest 297 342 28,000  Level New York Center
02:52PM 40.3433 -74.9619 232° Southwest 297 342 28,000  Level New York Center
02:53PM 40.2947 -75.0433 232° Southwest 292 336 28,000  Level New York Center
02:54PM 40.2478 -75.1247 233° Southwest 287 330 28,000  Level New York Center
02:55PM 40.1989 -75.2058 232° Southwest 287 330 28,000  Level New York Center
02:56PM 40.1478 -75.2894 231° Southwest 287 330 28,000  Level New York Center
02:57PM 40.1008 -75.3733 234° Southwest 287 330 28,000  Level New York Center
02:58PM 40.0519 -75.4542 232° Southwest 287 330 28,000  Level New York Center
02:59PM 40.0025 -75.5375 232° Southwest 287 330 28,000  Level New York Center
03:00PM 39.9533 -75.6181 231° Southwest 287 330 28,000  Level New York Center
03:01PM 39.9042 -75.6986 232° Southwest 287 330 28,000  Level New York Center
03:02PM 39.8461 -75.7919 231° Southwest 287 330 28,000  Level New York Center
03:03PM 39.7947 -75.8719 230° Southwest 292 336 28,000  Level New York Center
03:04PM 39.7408 -75.9572 231° Southwest 292 336 28,000 420 Level New York Center
03:05PM 39.6872 -76.0422 231° Southwest 302 348 28,900 660 Climbing New York Center
03:07PM 39.5869 -76.2028 231° Southwest 314 361 30,000 360 Climbing Washington Center
03:08PM 39.5283 -76.2911 229° Southwest 321 369 30,000  Level Washington Center
03:09PM 39.4736 -76.3792 231° Southwest 326 375 30,000  Level Washington Center
03:10PM 39.4125 -76.4700 229° Southwest 326 375 30,000  Level Washington Center
03:11PM 39.3514 -76.5578 228° Southwest 332 382 30,000  Level Washington Center
03:12PM 39.2922 -76.6508 231° Southwest 332 382 30,000  Level Washington Center
03:13PM 39.2350 -76.7439 232° Southwest 332 382 30,000  Level Washington Center
03:14PM 39.1781 -76.8339 231° Southwest 332 382 30,000  Level Washington Center
03:15PM 39.1167 -76.9239 229° Southwest 332 382 30,000  Level Washington Center
03:16PM 39.0572 -77.0164 230° Southwest 337 388 30,000  Level Washington Center
03:17PM 38.9872 -77.1006 223° Southwest 337 388 30,000  Level Washington Center
03:18PM 38.9175 -77.1792 221° Southwest 337 388 30,000  Level Washington Center
03:19PM 38.8392 -77.2653 221° Southwest 343 395 30,000  Level Washington Center
03:20PM 38.7653 -77.3436 220° Southwest 343 395 30,000  Level Washington Center
03:21PM 38.6950 -77.4244 222° Southwest 343 395 30,000  Level Washington Center
03:22PM 38.6208 -77.5022 219° Southwest 348 400 30,000  Level Washington Center
03:23PM 38.5508 -77.5800 221° Southwest 348 400 30,000  Level Washington Center
03:24PM 38.4767 -77.6603 220° Southwest 348 400 30,000  Level Washington Center
03:25PM 38.4022 -77.7403 220° Southwest 348 400 30,000  Level Washington Center
03:26PM 38.3278 -77.8175 219° Southwest 348 400 30,000  Level Washington Center
03:27PM 38.2553 -77.8975 221° Southwest 348 400 30,000  Level Washington Center
03:28PM 38.1808 -77.9797 221° Southwest 348 400 30,000  Level Washington Center
03:29PM 38.1061 -78.0564 219° Southwest 348 400 30,000 -120 Level Washington Center
03:30PM 38.0317 -78.1383 221° Southwest 353 406 29,800 -600 Descending Washington Center
03:31PM 37.9756 -78.2156 227° Southwest 353 406 28,900 -960 Descending Washington Center
03:32PM 37.9111 -78.3106 229° Southwest 348 400 28,000 -480 Descending Washington Center
03:33PM 37.8397 -78.4106 228° Southwest 354 407 28,000  Level Washington Center
03:34PM 37.7772 -78.5031 229° Southwest 354 407 28,000  Level Washington Center
03:35PM 37.7122 -78.5950 228° Southwest 354 407 28,000  Level Washington Center
03:36PM 37.6475 -78.6867 228° Southwest 354 407 28,000  Level Washington Center
03:37PM 37.5869 -78.7681 227° Southwest 354 407 28,000 -60 Level Washington Center
03:38PM 37.5217 -78.8650 230° Southwest 359 413 27,900 -660 Descending Washington Center
03:39PM 37.4544 -78.9536 226° Southwest 359 413 26,700 -1,380 Descending Washington Center
03:40PM 37.3894 -79.0475 229° Southwest 359 413 25,200 -1,500 Descending Washington Center
03:41PM 37.3242 -79.1386 228° Southwest 359 413 23,700 -1,620 Descending Washington Center
03:42PM 37.2544 -79.2369 228° Southwest 359 413 22,000 -1,500 Descending Washington Center
03:43PM 37.1931 -79.3281 230° Southwest 349 402 20,800 -1,200 Descending Washington Center
03:44PM 37.1339 -79.4164 230° Southwest 349 402 19,700 -1,140 Descending Washington Center
03:45PM 37.0747 -79.5044 230° Southwest 349 402 18,600 -1,020 Descending Washington Center
03:46PM 37.0156 -79.5900 229° Southwest 344 396 17,700 -1,020 Descending Washington Center
03:47PM 36.9694 -79.6578 230° Southwest 326 375 16,600 -1,140 Descending Washington Center
03:49PM 36.8768 -79.7825 229° Southwest  Level FlightAware Approximate
03:56PM 36.3654 -79.9894 174° South  Level FlightAware Approximate
03:57PM 36.2800 -79.9833 180° South  Level FlightAware Approximate
03:58PM 36.1803 -79.9747 175° South  Level FlightAware Approximate
03:59PM 36.1013 -79.9411 180° South  Level Estimated
04:00PM 36.1013 -79.9411 15° North  Level Estimated
04:01PM 36.1000 -79.9333 15° North  Level FlightAware Approximate
04:02PM 36.1013 -79.9411 15° North  Level Estimated
04:03PM 36.1000 -79.9333 15° North  Level FlightAware Approximate
04:04PM 36.1013 -79.9411 15° North  Level Estimated